Terminal Aerodrome Forecast
Issued by NWS

Home | Current Version | Previous Version | Graphics & Text | Print | Product List | Glossary On
Versions: 1 2 3 4 5 6 7 8 9 10 11 12 13 14 15 16 17 18 19 20 21 22 23 24 25 26 27 28 29 30 31 32 33 34
243
FTUS43 KABR 190853 AAB
TAFATY
TAF AMD
KATY 190853Z 1909/2006 17013KT 4SM BR SCT002
     FM191500 18009KT 1/2SM FZFG BKN003
     FM191700 18010KT 3/4SM BR SCT004
     FM200500 17008KT 1/2SM FZFG OVC008=

USA.gov is the U.S. government's official web portal to all federal, state and local government web resources and services.